Varna, Bulgaria
Current Conditions -  °F | °C
As of 11:30 PM on Thursday 23 Oct 2014 (Local Time) from LBWN Reporting Station
Light Rain Light Rain  
Wind Chill: 17°   Ceiling: 4800
Heat Index: 17°   Visibility: 6mi
Dew Point: 17°   Wind: 11mph
Humidity: 100%   Direction: 90°E
Pressure: 29.68"   Gusts: NA
Location:  43.21°N, 27.9°E
Report Text: LBWN 232030Z 09005MPS 9999 -RA SCT014 BKN048 17/17 Q1005 RERA NOSIG
Loading
Personal Weather Stations






























Interactive Weather Map
Tropical Storm Tracking
New forecast layout! Learn more

10-Day Weather Forecast

Advertisements
Track Severe Weather on mobile